createdAt,value
2019-05-01T00:02:17.281Z,5.00
2019-05-01T00:04:57.315Z,5.03
2019-05-01T00:07:28.777Z,4.87
2019-05-01T00:09:58.041Z,6.75
2019-05-01T00:12:27.465Z,4.90
2019-05-01T00:14:57.398Z,4.97
2019-05-01T00:17:27.837Z,6.37
2019-05-01T00:19:57.736Z,4.83
2019-05-01T00:22:27.452Z,5.12
2019-05-01T00:24:57.264Z,8.35
2019-05-01T00:27:26.545Z,7.47
2019-05-01T00:29:57.602Z,6.67
2019-05-01T00:32:27.213Z,6.87
2019-05-01T00:34:56.930Z,7.62
2019-05-01T00:37:27.565Z,6.60
2019-05-01T00:39:57.263Z,8.05
2019-05-01T00:42:26.875Z,7.47
2019-05-01T00:44:57.499Z,10.08
2019-05-01T00:47:27.229Z,13.05
2019-05-01T00:49:56.578Z,11.08
2019-05-01T00:52:26.328Z,11.30
2019-05-01T00:55:00.559Z,11.20
2019-05-01T00:57:31.893Z,12.13
2019-05-01T01:00:03.233Z,11.85
2019-05-01T01:02:38.493Z,11.60
2019-05-01T01:05:08.189Z,14.20
2019-05-01T01:07:37.895Z,13.72
2019-05-01T01:10:07.918Z,11.57
2019-05-01T01:12:37.330Z,12.03
2019-05-01T01:15:07.141Z,14.20
2019-05-01T01:17:36.567Z,13.85
2019-05-01T01:20:06.017Z,13.72
2019-05-01T01:22:35.646Z,13.38
2019-05-01T01:25:07.181Z,15.50
2019-05-01T01:27:37.013Z,15.95
2019-05-01T01:30:07.745Z,13.78
2019-05-01T01:32:37.457Z,13.93
2019-05-01T01:35:07.374Z,13.78
2019-05-01T01:37:36.684Z,12.63
2019-05-01T01:40:06.585Z,12.98
2019-05-01T01:42:36.608Z,11.60
2019-05-01T01:45:10.821Z,11.48
2019-05-01T01:47:58.444Z,14.58
2019-05-01T01:50:29.085Z,12.63
2019-05-01T01:52:58.793Z,14.70
2019-05-01T01:55:28.396Z,12.95
2019-05-01T01:57:57.737Z,11.38
2019-05-01T02:00:35.911Z,12.20
2019-05-01T02:03:07.361Z,12.10
2019-05-01T02:05:38.249Z,14.95
2019-05-01T02:08:09.032Z,12.25
2019-05-01T02:10:43.002Z,15.08
2019-05-01T02:13:10.093Z,14.18
2019-05-01T02:15:39.618Z,16.48
2019-05-01T02:18:09.304Z,14.30
2019-05-01T02:20:38.841Z,12.05
2019-05-01T02:23:08.523Z,13.15
2019-05-01T02:25:39.870Z,14.07
2019-05-01T02:28:27.709Z,14.05
2019-05-01T02:31:27.700Z,16.27
2019-05-01T02:33:48.375Z,15.80
2019-05-01T02:36:18.140Z,14.20
2019-05-01T02:38:48.366Z,12.65
2019-05-01T02:41:18.169Z,14.28
2019-05-01T02:43:49.926Z,15.13
2019-05-01T02:46:20.766Z,12.95
2019-05-01T02:49:19.766Z,13.60
2019-05-01T02:51:49.475Z,15.93
2019-05-01T02:54:19.284Z,14.23
2019-05-01T02:56:56.687Z,13.88
2019-05-01T02:59:26.998Z,13.35
2019-05-01T03:01:56.813Z,16.60
2019-05-01T03:04:26.527Z,16.27
2019-05-01T03:06:55.873Z,14.43
2019-05-01T03:09:25.432Z,15.68
2019-05-01T03:11:55.237Z,14.98
2019-05-01T03:14:24.522Z,16.67
2019-05-01T03:16:53.925Z,15.53
2019-05-01T03:19:25.402Z,18.00
2019-05-01T03:21:56.851Z,15.10
2019-05-01T03:24:28.298Z,20.90
2019-05-01T03:26:58.008Z,14.98
2019-05-01T03:29:27.923Z,15.88
2019-05-01T03:32:15.405Z,15.95
2019-05-01T03:34:28.878Z,17.75
2019-05-01T03:36:58.229Z,17.57
2019-05-01T03:39:27.990Z,17.62
2019-05-01T03:41:57.434Z,16.75
2019-05-01T03:44:27.107Z,16.93
2019-05-01T03:46:56.368Z,15.40
2019-05-01T03:49:26.319Z,16.00
2019-05-01T03:51:55.762Z,16.35
2019-05-01T03:54:25.105Z,17.45
2019-05-01T03:56:55.962Z,15.23
2019-05-01T03:59:25.873Z,14.40
2019-05-01T04:01:57.327Z,13.48
2019-05-01T04:04:31.187Z,16.40
2019-05-01T04:07:00.668Z,14.95
2019-05-01T04:09:30.164Z,14.70
2019-05-01T04:11:59.854Z,17.60
2019-05-01T04:14:29.566Z,16.10
2019-05-01T04:17:00.810Z,15.00
2019-05-01T04:19:30.722Z,15.55
2019-05-01T04:22:01.717Z,15.35
2019-05-01T04:24:32.504Z,15.80
2019-05-01T04:27:03.445Z,14.80
2019-05-01T04:29:37.554Z,14.83
2019-05-01T04:32:12.694Z,15.23
2019-05-01T04:34:44.144Z,13.68
2019-05-01T04:37:15.108Z,14.40
2019-05-01T04:39:44.462Z,13.83
2019-05-01T04:42:14.105Z,13.83
2019-05-01T04:44:43.807Z,17.77
2019-05-01T04:47:13.815Z,13.98
2019-05-01T04:49:43.946Z,16.70
2019-05-01T04:52:13.647Z,16.73
2019-05-01T04:54:43.462Z,17.70
2019-05-01T04:57:13.269Z,16.17
2019-05-01T04:59:42.990Z,15.80
2019-05-01T05:02:15.352Z,16.62
2019-05-01T05:04:44.962Z,14.90
2019-05-01T05:07:14.771Z,15.23
2019-05-01T05:09:47.765Z,16.93
2019-05-01T05:12:37.233Z,14.20
2019-05-01T05:15:18.005Z,13.55
2019-05-01T05:17:50.402Z,15.23
2019-05-01T05:20:20.082Z,15.28
2019-05-01T05:22:49.692Z,14.20
2019-05-01T05:25:19.206Z,14.50
2019-05-01T05:27:48.697Z,15.53
2019-05-01T05:30:18.325Z,14.38
2019-05-01T05:32:48.384Z,14.10
2019-05-01T05:35:18.377Z,13.68
2019-05-01T05:37:57.997Z,17.52
2019-05-01T05:40:31.043Z,16.30
2019-05-01T05:43:00.687Z,14.40
2019-05-01T05:45:30.301Z,13.83
2019-05-01T05:48:00.007Z,14.73
2019-05-01T05:50:37.090Z,12.53
2019-05-01T05:53:08.533Z,14.65
2019-05-01T05:55:40.532Z,13.28
2019-05-01T05:58:15.953Z,15.20
2019-05-01T06:00:53.123Z,9.98
2019-05-01T06:03:40.769Z,12.98
2019-05-01T06:06:21.662Z,11.93
2019-05-01T06:08:53.205Z,13.53
2019-05-01T06:11:34.026Z,12.73
2019-05-01T06:14:22.866Z,15.48
2019-05-01T06:16:55.720Z,14.43
2019-05-01T06:19:27.049Z,12.13
2019-05-01T06:22:11.613Z,13.60
2019-05-01T06:24:42.737Z,15.15
2019-05-01T06:27:13.711Z,13.15
2019-05-01T06:29:43.898Z,11.53
2019-05-01T06:32:14.649Z,11.63
2019-05-01T06:34:45.050Z,11.45
2019-05-01T06:37:15.005Z,12.95
2019-05-01T06:39:48.130Z,13.53
2019-05-01T06:42:18.298Z,14.15
2019-05-01T06:44:49.656Z,11.95
2019-05-01T06:47:38.141Z,14.50
2019-05-01T06:50:25.641Z,11.03
2019-05-01T06:52:59.822Z,11.75
2019-05-01T06:55:28.862Z,13.32
2019-05-01T06:57:59.457Z,17.85
2019-05-01T07:00:30.201Z,12.53
2019-05-01T07:03:00.018Z,14.25
2019-05-01T07:05:29.842Z,13.15
2019-05-01T07:07:59.733Z,13.68
2019-05-01T07:10:32.839Z,13.35
2019-05-01T07:13:04.823Z,13.40
2019-05-01T07:15:32.866Z,12.73
2019-05-01T07:18:03.597Z,21.57
2019-05-01T07:20:37.912Z,13.35
2019-05-01T07:23:07.523Z,13.28
2019-05-01T07:25:39.462Z,16.48
2019-05-01T07:28:08.573Z,12.88
2019-05-01T07:30:54.946Z,15.20
2019-05-01T07:33:24.083Z,16.02
2019-05-01T07:35:54.128Z,18.00
2019-05-01T07:38:24.937Z,19.02
2019-05-01T07:40:58.813Z,19.15
2019-05-01T07:43:27.334Z,18.52
2019-05-01T07:45:58.669Z,15.50
2019-05-01T07:48:31.208Z,20.27
2019-05-01T07:51:01.880Z,14.30
2019-05-01T07:53:32.209Z,16.93
2019-05-01T07:56:01.550Z,16.05
2019-05-01T07:58:32.137Z,15.25
2019-05-01T08:01:13.064Z,15.78
2019-05-01T08:03:42.745Z,16.97
2019-05-01T08:06:11.509Z,16.45
2019-05-01T08:08:41.109Z,11.12
2019-05-01T08:11:10.731Z,11.12
2019-05-01T08:13:40.428Z,12.30
2019-05-01T08:16:11.170Z,13.75
2019-05-01T08:18:42.513Z,15.00
2019-05-01T08:21:30.344Z,18.80
2019-05-01T08:24:00.060Z,23.38
2019-05-01T08:26:30.997Z,19.75
2019-05-01T08:29:03.033Z,22.45
2019-05-01T08:31:43.849Z,25.15
2019-05-01T08:34:15.181Z,24.25
2019-05-01T08:36:47.171Z,23.95
2019-05-01T08:39:16.465Z,21.45
2019-05-01T08:41:46.016Z,22.80
2019-05-01T08:44:15.765Z,24.55
2019-05-01T08:46:52.977Z,25.05
2019-05-01T08:49:42.231Z,24.82
2019-05-01T08:52:13.658Z,28.02
2019-05-01T08:54:41.573Z,25.10
2019-05-01T08:57:11.365Z,26.82
2019-05-01T08:59:41.157Z,24.87
2019-05-01T09:02:11.103Z,20.85
2019-05-01T09:04:40.786Z,25.65
2019-05-01T09:07:10.280Z,24.05
2019-05-01T09:09:45.231Z,22.42
2019-05-01T09:12:11.886Z,23.73
2019-05-01T09:14:42.286Z,25.37
2019-05-01T09:17:12.105Z,25.60
2019-05-01T09:19:41.911Z,23.50
2019-05-01T09:22:11.733Z,28.17
2019-05-01T09:24:41.911Z,20.45
2019-05-01T09:27:24.030Z,23.12
2019-05-01T09:29:55.093Z,21.15
2019-05-01T09:32:24.604Z,22.13
2019-05-01T09:34:53.957Z,23.25
2019-05-01T09:37:23.271Z,15.83
2019-05-01T09:39:52.908Z,17.55
2019-05-01T09:42:23.855Z,19.45
2019-05-01T09:44:53.970Z,14.30
2019-05-01T09:47:24.292Z,17.92
2019-05-01T09:49:55.919Z,17.48
2019-05-01T09:52:32.731Z,14.43
2019-05-01T09:55:04.071Z,16.70
2019-05-01T09:57:36.553Z,18.77
2019-05-01T10:00:08.259Z,24.15
2019-05-01T10:02:42.177Z,17.92
2019-05-01T10:05:10.936Z,14.87
2019-05-01T10:07:40.718Z,15.48
2019-05-01T10:10:11.289Z,16.97
2019-05-01T10:12:53.333Z,17.25
2019-05-01T10:15:22.949Z,16.32
2019-05-01T10:17:56.247Z,15.83
2019-05-01T10:22:55.728Z,18.75
2019-05-01T10:25:26.137Z,18.75
2019-05-01T10:28:17.682Z,17.30
2019-05-01T10:30:48.713Z,24.52
2019-05-01T10:33:22.691Z,20.10
2019-05-01T10:36:18.256Z,17.30
2019-05-01T10:38:44.881Z,19.35
2019-05-01T10:41:13.705Z,21.30
2019-05-01T10:43:43.454Z,17.65
2019-05-01T10:46:13.274Z,15.75
2019-05-01T10:48:43.662Z,17.90
2019-05-01T10:51:13.569Z,18.12
2019-05-01T10:53:43.308Z,19.20
2019-05-01T10:56:13.221Z,19.67
2019-05-01T10:58:43.221Z,17.15
2019-05-01T11:01:20.494Z,17.90
2019-05-01T11:03:50.102Z,19.67
2019-05-01T11:06:19.893Z,18.62
2019-05-01T11:08:50.702Z,17.75
2019-05-01T11:11:20.859Z,18.52
2019-05-01T11:13:51.668Z,16.30
2019-05-01T11:16:21.648Z,16.27
2019-05-01T11:18:51.533Z,14.55
2019-05-01T11:21:21.471Z,13.10
2019-05-01T11:23:50.916Z,18.75
2019-05-01T11:26:20.785Z,24.30
2019-05-01T11:28:50.502Z,17.17
2019-05-01T11:31:30.957Z,17.37
2019-05-01T11:34:08.202Z,28.98
2019-05-01T11:36:55.775Z,18.75
2019-05-01T11:39:29.733Z,35.20
2019-05-01T11:44:39.241Z,50.25
2019-05-01T11:47:09.258Z,14.38
2019-05-01T11:49:39.392Z,18.60
2019-05-01T11:52:09.056Z,32.95
2019-05-01T11:54:38.800Z,12.65
2019-05-01T11:57:08.620Z,14.33
2019-05-01T11:59:39.546Z,16.77
2019-05-01T12:02:11.808Z,20.25
2019-05-01T12:05:04.451Z,17.17
2019-05-01T12:07:35.548Z,16.90
2019-05-01T12:10:06.370Z,24.32
2019-05-01T12:12:37.232Z,12.63
2019-05-01T12:15:08.401Z,14.47
2019-05-01T12:17:45.503Z,18.87
2019-05-01T12:20:15.680Z,15.32
2019-05-01T12:22:47.901Z,25.50
2019-05-01T12:25:17.007Z,14.87
2019-05-01T12:27:46.727Z,12.90
2019-05-01T12:30:17.778Z,16.07
2019-05-01T12:32:47.123Z,15.15
2019-05-01T12:35:16.874Z,17.45
2019-05-01T12:37:47.426Z,14.60
2019-05-01T12:40:17.325Z,12.80
2019-05-01T12:42:47.135Z,10.28
2019-05-01T12:45:17.058Z,13.20
2019-05-01T12:47:51.157Z,13.40
2019-05-01T12:50:20.577Z,15.75
2019-05-01T12:53:03.786Z,10.43
2019-05-01T12:55:47.317Z,10.50
2019-05-01T12:58:17.041Z,18.12
2019-05-01T13:00:59.122Z,12.35
2019-05-01T13:03:28.937Z,15.03
2019-05-01T13:05:58.647Z,14.13
2019-05-01T13:08:29.151Z,11.65
2019-05-01T13:10:58.996Z,16.73
2019-05-01T13:13:28.806Z,20.60
2019-05-01T13:15:58.716Z,38.80
2019-05-01T13:18:28.581Z,16.65
2019-05-01T13:20:58.345Z,14.80
2019-05-01T13:23:28.073Z,20.02
2019-05-01T13:25:59.510Z,15.23
2019-05-01T13:28:39.762Z,12.03
2019-05-01T13:31:11.632Z,10.10
2019-05-01T13:33:41.057Z,17.20
2019-05-01T13:36:10.487Z,16.15
2019-05-01T13:38:40.386Z,15.55
2019-05-01T13:41:10.060Z,11.30
2019-05-01T13:43:39.469Z,12.80
2019-05-01T13:46:09.264Z,14.90
2019-05-01T13:48:38.892Z,11.48
2019-05-01T13:51:08.646Z,14.03
2019-05-01T13:53:38.297Z,11.63
2019-05-01T13:56:08.927Z,12.15
2019-05-01T13:58:59.384Z,10.70
2019-05-01T14:01:28.841Z,10.28
2019-05-01T14:03:58.502Z,12.82
2019-05-01T14:06:29.338Z,12.00
2019-05-01T14:08:58.981Z,12.95
2019-05-01T14:11:28.692Z,15.35
2019-05-01T14:13:58.297Z,18.37
2019-05-01T14:16:28.118Z,9.10
2019-05-01T14:18:57.931Z,10.72
2019-05-01T14:21:37.998Z,13.05
2019-05-01T14:24:12.110Z,12.35
2019-05-01T14:26:41.902Z,13.30
2019-05-01T14:29:11.264Z,11.45
2019-05-01T14:31:41.033Z,12.00
2019-05-01T14:34:10.836Z,7.95
2019-05-01T14:36:40.645Z,10.35
2019-05-01T14:39:10.360Z,10.70
2019-05-01T14:41:40.180Z,9.03
2019-05-01T14:44:10.078Z,14.33
2019-05-01T14:46:39.899Z,14.18
2019-05-01T14:49:09.825Z,10.80
2019-05-01T14:51:40.111Z,12.35
2019-05-01T14:54:09.759Z,12.78
2019-05-01T14:56:39.552Z,9.08
2019-05-01T14:59:10.157Z,14.07
2019-05-01T15:01:40.201Z,10.53
2019-05-01T15:04:09.909Z,11.22
2019-05-01T15:06:39.617Z,12.80
2019-05-01T15:09:09.673Z,12.25
2019-05-01T15:11:40.990Z,16.35
2019-05-01T15:14:24.021Z,14.03
2019-05-01T15:16:58.126Z,13.28
2019-05-01T15:19:29.122Z,12.85
2019-05-01T15:21:59.897Z,14.07
2019-05-01T15:24:29.609Z,10.60
2019-05-01T15:26:59.021Z,11.28
2019-05-01T15:29:28.821Z,9.05
2019-05-01T15:31:58.639Z,12.90
2019-05-01T15:34:28.445Z,10.40
2019-05-01T15:36:58.260Z,8.68
2019-05-01T15:39:29.719Z,13.48
2019-05-01T15:42:07.429Z,11.78
2019-05-01T15:44:38.890Z,9.38
2019-05-01T15:47:08.796Z,10.82
2019-05-01T15:49:38.592Z,12.80
2019-05-01T15:52:08.931Z,12.63
2019-05-01T15:54:38.674Z,10.55
2019-05-01T15:57:08.442Z,13.32
2019-05-01T15:59:38.163Z,11.20
2019-05-01T16:02:08.063Z,14.65
2019-05-01T16:04:37.975Z,9.83
2019-05-01T16:07:07.798Z,13.62
2019-05-01T16:09:37.492Z,11.73
2019-05-01T16:12:14.587Z,12.20
2019-05-01T16:14:45.112Z,12.80
2019-05-01T16:17:14.534Z,9.38
2019-05-01T16:19:44.228Z,10.60
2019-05-01T16:22:13.939Z,10.93
2019-05-01T16:24:43.671Z,15.25
2019-05-01T16:27:14.044Z,10.10
2019-05-01T16:29:43.807Z,14.28
2019-05-01T16:32:13.187Z,9.75
2019-05-01T16:34:42.993Z,10.38
2019-05-01T16:37:12.309Z,11.43
2019-05-01T16:39:46.425Z,9.68
2019-05-01T16:42:15.945Z,11.35
2019-05-01T16:44:45.526Z,10.53
2019-05-01T16:47:15.333Z,11.83
2019-05-01T16:49:44.746Z,12.98
2019-05-01T16:52:15.371Z,12.15
2019-05-01T16:54:45.089Z,11.97
2019-05-01T16:57:16.013Z,11.12
2019-05-01T16:59:45.830Z,13.22
2019-05-01T17:02:17.192Z,10.58
2019-05-01T17:04:54.777Z,10.60
2019-05-01T17:07:35.229Z,12.20
2019-05-01T17:10:11.854Z,11.12
2019-05-01T17:12:43.259Z,12.82
2019-05-01T17:15:12.965Z,11.43
2019-05-01T17:17:42.680Z,14.65
2019-05-01T17:20:12.290Z,10.00
2019-05-01T17:22:41.572Z,14.13
2019-05-01T17:25:11.604Z,11.70
2019-05-01T17:27:41.517Z,11.75
2019-05-01T17:30:18.910Z,9.30
2019-05-01T17:32:48.722Z,11.03
2019-05-01T17:35:18.406Z,12.20
2019-05-01T17:37:48.041Z,9.20
2019-05-01T17:40:17.286Z,11.30
2019-05-01T17:42:47.161Z,10.63
2019-05-01T17:45:16.960Z,9.60
2019-05-01T17:47:47.696Z,15.08
2019-05-01T17:50:21.018Z,12.00
2019-05-01T17:52:49.061Z,18.00
2019-05-01T17:55:19.706Z,10.60
2019-05-01T17:57:49.542Z,18.70
2019-05-01T18:00:27.221Z,13.83
2019-05-01T18:03:10.744Z,13.20
2019-05-01T18:06:01.451Z,17.07
2019-05-01T18:08:28.237Z,12.03
2019-05-01T18:10:58.006Z,14.15
2019-05-01T18:13:27.726Z,16.07
2019-05-01T18:15:57.627Z,13.32
2019-05-01T18:18:27.357Z,11.70
2019-05-01T18:20:57.143Z,12.65
2019-05-01T18:23:31.583Z,14.33
2019-05-01T18:26:08.756Z,12.93
2019-05-01T18:28:38.987Z,10.70
2019-05-01T18:31:10.426Z,13.90
2019-05-01T18:33:39.872Z,13.38
2019-05-01T18:36:09.736Z,16.42
2019-05-01T18:38:47.579Z,11.68
2019-05-01T18:41:20.410Z,12.28
2019-05-01T18:43:50.787Z,12.25
2019-05-01T18:46:20.988Z,10.88
2019-05-01T18:48:52.076Z,11.85
2019-05-01T18:51:22.044Z,13.30
2019-05-01T18:53:57.431Z,13.53
2019-05-01T18:56:25.315Z,14.10
2019-05-01T18:58:55.448Z,14.85
2019-05-01T19:01:25.243Z,14.13
2019-05-01T19:03:54.924Z,14.83
2019-05-01T19:06:25.985Z,13.60
2019-05-01T19:08:56.542Z,18.12
2019-05-01T19:11:27.783Z,18.98
2019-05-01T19:13:58.040Z,16.90
2019-05-01T19:16:27.835Z,17.20
2019-05-01T19:18:57.957Z,21.60
2019-05-01T19:21:29.001Z,20.35
2019-05-01T19:24:00.620Z,24.90
2019-05-01T19:26:30.154Z,24.52
2019-05-01T19:28:59.997Z,24.23
2019-05-01T19:31:29.685Z,22.30
2019-05-01T19:33:59.519Z,24.57
2019-05-01T19:36:29.203Z,24.63
2019-05-01T19:38:58.553Z,23.77
2019-05-01T19:41:28.210Z,25.17
2019-05-01T19:43:57.923Z,23.67
2019-05-01T19:46:27.629Z,26.73
2019-05-01T19:48:57.504Z,22.93
2019-05-01T19:51:27.257Z,25.27
2019-05-01T19:53:57.192Z,24.60
2019-05-01T19:56:27.265Z,24.75
2019-05-01T19:58:57.911Z,23.52
2019-05-01T20:01:29.164Z,24.10
2019-05-01T20:03:59.126Z,27.77
2019-05-01T20:06:29.002Z,26.62
2019-05-01T20:08:58.714Z,26.68
2019-05-01T20:11:28.525Z,27.10
2019-05-01T20:13:58.265Z,26.85
2019-05-01T20:16:28.054Z,27.30
2019-05-01T20:18:57.955Z,27.62
2019-05-01T20:21:27.914Z,27.48
2019-05-01T20:23:58.354Z,25.60
2019-05-01T20:26:32.251Z,26.73
2019-05-01T20:29:00.514Z,27.13
2019-05-01T20:31:32.779Z,31.75
2019-05-01T20:34:01.902Z,27.60
2019-05-01T20:36:31.562Z,30.12
2019-05-01T20:39:01.375Z,29.07
2019-05-01T20:41:33.345Z,26.95
2019-05-01T20:44:02.656Z,30.90
2019-05-01T20:46:32.357Z,32.83
2019-05-01T20:49:06.250Z,25.20
2019-05-01T20:51:33.513Z,29.23
2019-05-01T20:54:03.317Z,28.95
2019-05-01T20:56:37.238Z,32.30
2019-05-01T21:01:38.094Z,28.65
2019-05-01T21:04:26.382Z,30.82
2019-05-01T21:07:19.862Z,31.57
2019-05-01T21:09:57.290Z,29.95
2019-05-01T21:12:19.833Z,33.45
2019-05-01T21:14:49.880Z,32.50
2019-05-01T21:17:20.700Z,29.67
2019-05-01T21:19:50.405Z,34.85
2019-05-01T21:22:19.757Z,32.00
2019-05-01T21:24:49.520Z,31.42
2019-05-01T21:27:19.125Z,33.55
2019-05-01T21:29:48.937Z,31.20
2019-05-01T21:32:25.513Z,33.35
2019-05-01T21:34:51.226Z,35.80
2019-05-01T21:37:21.142Z,31.73
2019-05-01T21:39:50.856Z,29.77
2019-05-01T21:42:20.563Z,40.75
2019-05-01T21:44:50.278Z,33.40
2019-05-01T21:47:19.978Z,35.17
2019-05-01T21:49:49.701Z,35.40
2019-05-01T21:52:25.134Z,35.25
2019-05-01T21:54:55.150Z,35.73
2019-05-01T21:57:21.385Z,35.63
2019-05-01T21:59:51.094Z,34.20
2019-05-01T22:02:20.534Z,38.17
2019-05-01T22:04:49.909Z,34.98
2019-05-01T22:07:19.257Z,34.88
2019-05-01T22:09:50.541Z,37.23
2019-05-01T22:12:20.375Z,36.33
2019-05-01T22:14:54.165Z,34.50
2019-05-01T22:17:32.119Z,41.02
2019-05-01T22:19:59.321Z,35.98
2019-05-01T22:22:44.021Z,37.48
2019-05-01T22:25:12.666Z,40.60
2019-05-01T22:27:46.887Z,40.50
2019-05-01T22:30:18.129Z,36.98
2019-05-01T22:32:49.549Z,35.92
2019-05-01T22:35:20.866Z,38.55
2019-05-01T22:37:50.637Z,36.35
2019-05-01T22:40:34.018Z,34.70
2019-05-01T22:43:03.888Z,39.83
2019-05-01T22:45:33.698Z,38.13
2019-05-01T22:48:03.501Z,36.17
2019-05-01T22:50:33.113Z,37.55
2019-05-01T22:53:02.770Z,36.03
2019-05-01T22:55:32.430Z,36.60
2019-05-01T22:58:01.760Z,36.40
2019-05-01T23:00:36.051Z,36.65
2019-05-01T23:03:07.501Z,39.33
2019-05-01T23:05:37.211Z,35.20
2019-05-01T23:08:07.023Z,37.15
2019-05-01T23:10:36.588Z,37.15
2019-05-01T23:13:06.538Z,38.02
2019-05-01T23:15:36.128Z,34.53
2019-05-01T23:18:05.480Z,35.85
2019-05-01T23:20:38.979Z,37.58
2019-05-01T23:23:05.858Z,39.63
2019-05-01T23:25:36.523Z,36.33
2019-05-01T23:28:06.961Z,36.35
2019-05-01T23:30:37.902Z,37.88
2019-05-01T23:33:07.610Z,35.20
2019-05-01T23:35:37.045Z,36.20
2019-05-01T23:38:06.718Z,36.70
2019-05-01T23:40:36.101Z,37.33
2019-05-01T23:43:05.938Z,38.40
2019-05-01T23:45:35.367Z,36.03
2019-05-01T23:48:04.964Z,38.40
2019-05-01T23:50:34.549Z,38.45
2019-05-01T23:53:04.185Z,38.88
2019-05-01T23:55:33.974Z,36.42
2019-05-01T23:58:03.177Z,36.03
